createdAt,value
2018-11-05T00:00:43.284Z,10.78
2018-11-05T00:05:46.536Z,10.79
2018-11-05T00:10:49.829Z,10.86
2018-11-05T00:15:53.174Z,10.87
2018-11-05T00:20:56.474Z,10.82
2018-11-05T00:26:00.062Z,10.81
2018-11-05T00:31:03.701Z,10.81
2018-11-05T00:36:08.092Z,10.78
2018-11-05T00:41:11.325Z,10.76
2018-11-05T00:46:14.651Z,10.76
2018-11-05T00:51:17.890Z,10.80
2018-11-05T00:56:21.199Z,10.86
2018-11-05T01:01:24.807Z,10.86
2018-11-05T01:06:28.851Z,10.82
2018-11-05T01:11:32.609Z,10.82
2018-11-05T01:16:35.844Z,10.82
2018-11-05T01:21:39.267Z,10.85
2018-11-05T01:26:42.551Z,10.86
2018-11-05T01:31:45.818Z,10.89
2018-11-05T01:36:49.508Z,10.88
2018-11-05T01:41:54.581Z,10.88
2018-11-05T01:46:57.933Z,10.88
2018-11-05T01:52:01.744Z,10.88
2018-11-05T01:57:05.081Z,10.93
2018-11-05T02:02:08.505Z,10.90
2018-11-05T02:07:12.027Z,10.91
2018-11-05T02:12:15.390Z,10.89
2018-11-05T02:17:18.599Z,10.89
2018-11-05T02:22:22.611Z,10.88
2018-11-05T02:27:26.878Z,10.90
2018-11-05T02:32:30.989Z,10.93
2018-11-05T02:37:34.501Z,10.89
2018-11-05T02:42:37.767Z,10.95
2018-11-05T02:47:41.031Z,10.94
2018-11-05T02:52:44.299Z,10.94
2018-11-05T02:57:47.482Z,10.98
2018-11-05T03:02:52.063Z,10.93
2018-11-05T03:07:56.090Z,10.90
2018-11-05T03:12:59.435Z,10.94
2018-11-05T03:18:02.692Z,10.97
2018-11-05T03:23:06.215Z,11.07
2018-11-05T03:28:09.441Z,11.02
2018-11-05T03:33:12.704Z,11.01
2018-11-05T03:38:15.890Z,10.99
2018-11-05T03:43:19.216Z,11.01
2018-11-05T03:48:23.202Z,11.03
2018-11-05T03:53:27.058Z,11.03
2018-11-05T03:58:30.497Z,11.01
2018-11-05T04:03:33.980Z,10.99
2018-11-05T04:08:37.315Z,10.96
2018-11-05T04:13:40.549Z,10.95
2018-11-05T04:18:44.712Z,10.97
2018-11-05T04:23:48.256Z,10.95
2018-11-05T04:28:56.270Z,10.95
2018-11-05T04:33:59.768Z,10.89
2018-11-05T04:39:03.135Z,10.93
2018-11-05T04:44:06.352Z,10.89
2018-11-05T04:49:09.538Z,10.85
2018-11-05T04:54:12.737Z,10.86
2018-11-05T04:59:15.923Z,10.89
2018-11-05T05:04:19.378Z,10.86
2018-11-05T05:09:22.649Z,10.83
2018-11-05T05:14:26.034Z,10.85
2018-11-05T05:19:29.231Z,10.83
2018-11-05T05:24:32.454Z,10.87
2018-11-05T05:29:35.793Z,10.83
2018-11-05T05:34:39.084Z,10.83
2018-11-05T05:39:42.236Z,10.82
2018-11-05T05:44:47.485Z,10.80
2018-11-05T05:49:50.901Z,10.68
2018-11-05T05:54:54.238Z,10.75
2018-11-05T05:59:57.643Z,10.73
2018-11-05T06:05:00.725Z,10.73
2018-11-05T06:10:04.009Z,10.70
2018-11-05T06:15:08.883Z,10.74
2018-11-05T06:20:13.446Z,10.74
2018-11-05T06:25:16.834Z,10.70
2018-11-05T06:30:20.088Z,10.68
2018-11-05T06:35:23.462Z,10.70
2018-11-05T06:40:26.905Z,10.70
2018-11-05T06:45:30.462Z,10.69
2018-11-05T06:50:33.640Z,10.76
2018-11-05T06:55:36.851Z,10.77
2018-11-05T07:00:40.166Z,10.81
2018-11-05T07:05:43.928Z,10.88
2018-11-05T07:10:47.751Z,10.90
2018-11-05T07:15:51.119Z,10.95
2018-11-05T07:21:01.319Z,11.02
2018-11-05T07:26:06.269Z,11.03
2018-11-05T07:31:09.497Z,10.99
2018-11-05T07:36:13.203Z,10.96
2018-11-05T07:41:17.181Z,10.95
2018-11-05T07:46:21.283Z,10.96
2018-11-05T07:51:25.063Z,11.00
2018-11-05T07:56:28.513Z,11.07
2018-11-05T08:01:31.773Z,11.06
2018-11-05T08:06:34.936Z,11.10
2018-11-05T08:11:38.152Z,11.06
2018-11-05T08:16:41.384Z,11.34
2018-11-05T08:21:44.968Z,11.64
2018-11-05T08:26:48.130Z,11.89
2018-11-05T08:31:51.449Z,11.91
2018-11-05T08:36:56.529Z,12.22
2018-11-05T08:41:59.725Z,11.93
2018-11-05T08:47:02.977Z,12.14
2018-11-05T08:52:06.201Z,12.58
2018-11-05T08:57:09.388Z,12.66
2018-11-05T09:02:12.599Z,12.58
2018-11-05T09:07:16.007Z,12.14
2018-11-05T09:12:19.267Z,12.20
2018-11-05T09:17:22.639Z,12.57
2018-11-05T09:22:27.967Z,12.83
2018-11-05T09:27:31.175Z,13.14
2018-11-05T09:32:34.323Z,12.58
2018-11-05T09:37:37.491Z,12.26
2018-11-05T09:42:40.783Z,11.97
2018-11-05T09:47:44.028Z,11.99
2018-11-05T09:52:47.289Z,12.26
2018-11-05T09:57:50.619Z,13.19
2018-11-05T10:02:54.059Z,13.92
2018-11-05T10:07:57.186Z,14.12
2018-11-05T10:13:00.336Z,15.08
2018-11-05T10:18:03.848Z,15.07
2018-11-05T10:23:07.099Z,14.14
2018-11-05T10:28:10.288Z,14.52
2018-11-05T10:33:13.488Z,14.75
2018-11-05T10:38:16.596Z,14.18
2018-11-05T10:43:21.167Z,14.04
2018-11-05T10:48:24.407Z,14.04
2018-11-05T10:53:27.794Z,15.12
2018-11-05T10:58:30.964Z,15.41
2018-11-05T11:03:35.000Z,15.30
2018-11-05T11:08:38.634Z,15.01
2018-11-05T11:13:41.910Z,15.44
2018-11-05T11:18:45.069Z,15.69
2018-11-05T11:23:48.258Z,15.47
2018-11-05T11:28:52.381Z,15.23
2018-11-05T11:33:56.133Z,15.00
2018-11-05T11:38:59.314Z,15.55
2018-11-05T11:44:04.854Z,15.78
2018-11-05T11:49:08.018Z,15.72
2018-11-05T11:54:11.222Z,15.96
2018-11-05T11:59:15.116Z,16.34
2018-11-05T12:04:18.305Z,16.72
2018-11-05T12:09:21.644Z,16.67
2018-11-05T12:14:24.840Z,16.50
2018-11-05T12:19:27.968Z,16.17
2018-11-05T12:24:31.261Z,15.85
2018-11-05T12:29:34.623Z,15.82
2018-11-05T12:34:37.832Z,15.64
2018-11-05T12:39:41.084Z,15.34
2018-11-05T12:44:44.321Z,15.37
2018-11-05T12:49:47.472Z,15.32
2018-11-05T12:54:50.856Z,15.08
2018-11-05T12:59:54.199Z,14.96
2018-11-05T13:04:57.513Z,14.96
2018-11-05T13:10:00.841Z,15.06
2018-11-05T13:15:04.963Z,15.32
2018-11-05T13:20:10.503Z,15.61
2018-11-05T13:25:13.753Z,15.79
2018-11-05T13:30:16.982Z,15.61
2018-11-05T13:35:20.398Z,15.45
2018-11-05T13:40:23.871Z,15.33
2018-11-05T13:45:27.664Z,15.07
2018-11-05T13:50:31.000Z,14.74
2018-11-05T13:55:33.827Z,14.47
2018-11-05T14:00:37.758Z,14.19
2018-11-05T14:05:40.920Z,14.05
2018-11-05T14:10:44.259Z,13.87
2018-11-05T14:15:47.482Z,13.79
2018-11-05T14:20:50.964Z,13.61
2018-11-05T14:25:54.304Z,13.46
2018-11-05T14:30:57.512Z,13.30
2018-11-05T14:36:00.828Z,13.12
2018-11-05T14:41:04.272Z,13.02
2018-11-05T14:46:07.784Z,12.90
2018-11-05T14:51:11.043Z,12.72
2018-11-05T14:56:14.784Z,12.72
2018-11-05T15:01:18.091Z,12.50
2018-11-05T15:06:22.618Z,12.14
2018-11-05T15:11:26.352Z,11.75
2018-11-05T15:16:30.529Z,11.51
2018-11-05T15:21:35.713Z,11.15
2018-11-05T15:26:38.982Z,10.92
2018-11-05T15:31:42.045Z,10.63
2018-11-05T15:36:45.253Z,10.53
2018-11-05T15:41:48.744Z,10.45
2018-11-05T15:46:52.022Z,10.31
2018-11-05T15:51:55.612Z,10.05
2018-11-05T15:56:59.563Z,10.08
2018-11-05T16:02:03.007Z,10.37
2018-11-05T16:07:06.258Z,10.50
2018-11-05T16:12:09.972Z,10.20
2018-11-05T16:17:13.221Z,10.03
2018-11-05T16:22:16.536Z,9.93
2018-11-05T16:27:20.249Z,9.85
2018-11-05T16:32:23.645Z,9.79
2018-11-05T16:37:27.014Z,10.10
2018-11-05T16:42:30.253Z,10.21
2018-11-05T16:47:33.552Z,10.17
2018-11-05T16:52:36.791Z,10.04
2018-11-05T16:57:40.485Z,9.98
2018-11-05T17:02:43.886Z,9.93
2018-11-05T17:07:46.990Z,9.94
2018-11-05T17:12:50.387Z,10.06
2018-11-05T17:17:53.723Z,10.13
2018-11-05T17:22:57.181Z,10.04
2018-11-05T17:28:06.808Z,10.27
2018-11-05T17:33:10.046Z,10.29
2018-11-05T17:38:16.006Z,10.18
2018-11-05T17:43:19.329Z,10.08
2018-11-05T17:48:22.790Z,9.99
2018-11-05T17:53:26.105Z,10.14
2018-11-05T17:58:29.641Z,10.14
2018-11-05T18:03:33.043Z,10.00
2018-11-05T18:08:36.273Z,9.81
2018-11-05T18:13:40.368Z,9.80
2018-11-05T18:18:43.777Z,9.97
2018-11-05T18:23:53.245Z,10.14
2018-11-05T18:28:56.806Z,10.39
2018-11-05T18:34:00.182Z,10.51
2018-11-05T18:39:05.383Z,10.43
2018-11-05T18:44:08.607Z,10.37
2018-11-05T18:49:11.825Z,10.36
2018-11-05T18:54:14.968Z,10.25
2018-11-05T18:59:18.541Z,10.07
2018-11-05T19:04:22.064Z,9.92
2018-11-05T19:09:25.567Z,9.88
2018-11-05T19:14:29.250Z,9.87
2018-11-05T19:19:32.681Z,9.82
2018-11-05T19:24:36.420Z,9.88
2018-11-05T19:29:41.679Z,10.04
2018-11-05T19:34:45.863Z,10.13
2018-11-05T19:39:51.593Z,10.06
2018-11-05T19:45:09.288Z,10.10
2018-11-05T19:50:24.179Z,10.18
2018-11-05T19:55:33.603Z,10.13
2018-11-05T20:00:46.598Z,10.17
2018-11-05T20:06:06.456Z,10.04
2018-11-05T20:11:24.397Z,9.89
2018-11-05T20:16:32.772Z,9.91
2018-11-05T20:21:40.870Z,9.84
2018-11-05T20:26:45.030Z,9.77
2018-11-05T20:31:48.523Z,9.77
2018-11-05T20:36:51.702Z,9.84
2018-11-05T20:41:55.052Z,9.77
2018-11-05T20:46:58.446Z,9.61
2018-11-05T20:52:03.757Z,9.48
2018-11-05T20:57:07.019Z,9.21
2018-11-05T21:02:10.579Z,9.15
2018-11-05T21:07:13.856Z,9.27
2018-11-05T21:12:17.080Z,9.48
2018-11-05T21:17:20.338Z,9.50
2018-11-05T21:22:23.745Z,9.45
2018-11-05T21:27:27.001Z,9.50
2018-11-05T21:32:30.334Z,9.38
2018-11-05T21:37:33.576Z,9.46
2018-11-05T21:42:36.801Z,9.43
2018-11-05T21:47:41.018Z,9.56
2018-11-05T21:52:44.240Z,9.70
2018-11-05T21:57:47.510Z,9.92
2018-11-05T22:02:50.830Z,9.94
2018-11-05T22:07:54.200Z,10.01
2018-11-05T22:12:57.501Z,10.00
2018-11-05T22:18:01.094Z,10.07
2018-11-05T22:23:04.416Z,10.18
2018-11-05T22:28:07.647Z,10.10
2018-11-05T22:33:10.845Z,10.16
2018-11-05T22:38:14.123Z,10.06
2018-11-05T22:43:17.299Z,10.11
2018-11-05T22:48:20.578Z,10.09
2018-11-05T22:53:23.902Z,10.05
2018-11-05T22:58:27.300Z,10.03
2018-11-05T23:03:30.499Z,9.94
2018-11-05T23:08:33.674Z,9.86
2018-11-05T23:13:37.002Z,9.74
2018-11-05T23:18:40.209Z,9.63
2018-11-05T23:23:43.488Z,9.62
2018-11-05T23:28:46.729Z,9.66
2018-11-05T23:33:50.100Z,9.46
2018-11-05T23:38:53.428Z,9.26
2018-11-05T23:43:56.561Z,9.15
2018-11-05T23:48:59.787Z,9.02
2018-11-05T23:54:02.955Z,8.96
2018-11-05T23:59:06.182Z,8.96
